Orbital elements of COSMOS 2251 DEB
| Launched | 15 June 1993 |
| Flight ended | – |
| Launch site | Plesetsk Missile and Space Complex, Russia |
| Owner | Commonwealth of Independent States (former USSR) |
| NORAD ID | 33932 |
| Date fetched |
Epoch osculation |
Inc. [°] |
Ecc. | RA asc node [hr] |
Arg Peri. [°] |
Mean anom [°] |
Mean motion [rev/day] |
Abs. mag |
| Date fetched |
Epoch osculation |
Inc. [°] |
Ecc. | RA asc node [hr] |
Arg Peri. [°] |
Mean anom [°] |
Mean motion [rev/day] |
Abs. mag |
| 2026 May 04 17:57 | 2026 Apr 30 14:00:45 | 74.0340 | 0.00354 | 3.9834 | 106.5730 | 253.9312 | 14.39162 | – |
| 2026 May 03 17:57 | 2026 Apr 30 14:00:45 | 74.0340 | 0.00354 | 3.9834 | 106.5730 | 253.9312 | 14.39162 | – |
| 2026 May 02 17:57 | 2026 Apr 30 14:00:45 | 74.0340 | 0.00354 | 3.9834 | 106.5730 | 253.9312 | 14.39162 | – |
| 2026 May 01 17:56 | 2026 Apr 30 14:00:45 | 74.0340 | 0.00354 | 3.9834 | 106.5730 | 253.9312 | 14.39162 | – |
| 2026 Apr 30 17:56 | 2026 Apr 30 14:00:45 | 74.0340 | 0.00354 | 3.9834 | 106.5730 | 253.9312 | 14.39162 | – |
| 2026 Apr 29 17:57 | 2026 Apr 24 07:51:49 | 74.0329 | 0.00354 | 4.7531 | 120.0586 | 253.9312 | 14.39162 | – |
| 2026 Apr 28 17:56 | 2026 Apr 24 07:51:49 | 74.0329 | 0.00354 | 4.7531 | 120.0586 | 253.9312 | 14.39162 | – |
| 2026 Apr 27 17:58 | 2026 Apr 24 07:51:49 | 74.0329 | 0.00354 | 4.7531 | 120.0586 | 253.9312 | 14.39162 | – |
| 2026 Apr 26 17:58 | 2026 Apr 24 07:51:49 | 74.0329 | 0.00354 | 4.7531 | 120.0586 | 253.9312 | 14.39162 | – |
| 2026 Apr 25 17:58 | 2026 Apr 24 07:51:49 | 74.0329 | 0.00354 | 4.7531 | 120.0586 | 253.9312 | 14.39162 | – |
| 2026 Apr 24 17:59 | 2026 Apr 24 07:51:49 | 74.0329 | 0.00354 | 4.7531 | 120.0586 | 253.9312 | 14.39162 | – |
| 2026 Apr 23 17:57 | 2026 Apr 19 07:44:37 | 74.0321 | 0.00354 | 5.3689 | 130.8546 | 253.9312 | 14.39162 | – |
| 2026 Apr 22 17:57 | 2026 Apr 19 07:44:37 | 74.0321 | 0.00354 | 5.3689 | 130.8546 | 253.9312 | 14.39162 | – |
| 2026 Apr 21 17:57 | 2026 Apr 19 07:44:37 | 74.0321 | 0.00354 | 5.3689 | 130.8546 | 253.9312 | 14.39162 | – |
| 2026 Apr 20 17:57 | 2026 Apr 19 07:44:37 | 74.0321 | 0.00354 | 5.3689 | 130.8546 | 253.9312 | 14.39162 | – |
| 2026 Apr 19 17:58 | 2026 Apr 19 07:44:37 | 74.0321 | 0.00354 | 5.3689 | 130.8546 | 253.9312 | 14.39162 | – |
| 2026 Apr 18 17:56 | 2026 Apr 12 23:55:26 | 74.0312 | 0.00356 | 6.1473 | 144.4749 | 253.9312 | 14.39162 | – |
| 2026 Apr 16 17:57 | 2026 Apr 12 23:55:26 | 74.0312 | 0.00356 | 6.1473 | 144.4749 | 253.9312 | 14.39162 | – |
| 2026 Apr 14 17:57 | 2026 Apr 12 23:55:26 | 74.0312 | 0.00356 | 6.1473 | 144.4749 | 253.9312 | 14.39162 | – |
| 2026 Apr 13 17:57 | 2026 Apr 12 23:55:26 | 74.0312 | 0.00356 | 6.1473 | 144.4749 | 253.9312 | 14.39162 | – |
| 2026 Apr 12 17:57 | 2026 Apr 08 09:48:44 | 74.0310 | 0.00357 | 6.7118 | 154.2855 | 253.9312 | 14.39162 | – |
| 2026 Apr 11 17:57 | 2026 Apr 08 09:48:44 | 74.0310 | 0.00357 | 6.7118 | 154.2855 | 253.9312 | 14.39162 | – |
| 2026 Apr 10 17:58 | 2026 Apr 08 09:48:44 | 74.0310 | 0.00357 | 6.7118 | 154.2855 | 253.9312 | 14.39162 | – |
| 2026 Apr 09 18:01 | 2026 Apr 08 09:48:44 | 74.0310 | 0.00357 | 6.7118 | 154.2855 | 253.9312 | 14.39162 | – |
| 2026 Apr 08 17:57 | 2026 Apr 08 09:48:44 | 74.0310 | 0.00357 | 6.7118 | 154.2855 | 253.9312 | 14.39162 | – |
| 2026 Apr 07 17:57 | 2026 Apr 02 01:59:25 | 74.0310 | 0.00360 | 7.4901 | 167.6350 | 253.9312 | 14.39162 | – |